createdAt,value
2023-05-19T00:01:17.570Z,13.42
2023-05-19T00:04:21.363Z,13.36
2023-05-19T00:07:29.132Z,13.34
2023-05-19T00:10:33.302Z,13.31
2023-05-19T00:13:36.352Z,13.27
2023-05-19T00:16:40.105Z,13.25
2023-05-19T00:19:45.165Z,13.27
2023-05-19T00:22:48.260Z,13.26
2023-05-19T00:25:51.306Z,13.26
2023-05-19T00:28:54.139Z,13.20
2023-05-19T00:31:56.775Z,13.27
2023-05-19T00:34:59.665Z,13.12
2023-05-19T00:38:02.176Z,13.11
2023-05-19T00:41:05.665Z,13.14
2023-05-19T00:44:08.293Z,13.10
2023-05-19T00:47:11.168Z,13.15
2023-05-19T00:50:13.789Z,13.10
2023-05-19T00:53:18.347Z,13.08
2023-05-19T00:56:21.876Z,13.03
2023-05-19T00:59:24.951Z,13.08
2023-05-19T01:02:29.809Z,13.02
2023-05-19T01:05:33.053Z,13.00
2023-05-19T01:08:37.408Z,12.91
2023-05-19T01:11:40.343Z,12.92
2023-05-19T01:14:43.227Z,12.93
2023-05-19T01:17:54.728Z,12.88
2023-05-19T01:21:26.706Z,12.86
2023-05-19T01:24:39.127Z,12.87
2023-05-19T01:27:50.905Z,12.84
2023-05-19T01:30:55.909Z,12.83
2023-05-19T01:33:58.775Z,12.81
2023-05-19T01:37:02.066Z,12.81
2023-05-19T01:40:06.635Z,12.77
2023-05-19T01:43:13.596Z,12.75
2023-05-19T01:46:16.704Z,12.78
2023-05-19T01:49:19.708Z,12.81
2023-05-19T01:52:22.286Z,12.80
2023-05-19T01:55:25.705Z,12.77
2023-05-19T01:58:47.802Z,12.76
2023-05-19T02:01:54.619Z,12.79
2023-05-19T02:05:10.450Z,12.78
2023-05-19T02:08:42.310Z,12.74
2023-05-19T02:12:06.645Z,12.73
2023-05-19T02:15:16.579Z,12.74
2023-05-19T02:18:20.437Z,12.76
2023-05-19T02:21:26.591Z,12.76
2023-05-19T02:24:30.880Z,12.78
2023-05-19T02:27:36.188Z,12.76
2023-05-19T02:30:38.988Z,12.72
2023-05-19T02:33:43.019Z,12.76
2023-05-19T02:36:45.582Z,12.76
2023-05-19T02:39:48.455Z,12.70
2023-05-19T02:42:51.012Z,12.64
2023-05-19T02:45:53.871Z,12.62
2023-05-19T02:48:56.548Z,12.61
2023-05-19T02:51:59.509Z,12.61
2023-05-19T02:55:02.145Z,12.62
2023-05-19T02:58:05.309Z,12.61
2023-05-19T03:01:07.850Z,12.59
2023-05-19T03:04:11.279Z,12.61
2023-05-19T03:07:13.852Z,12.61
2023-05-19T03:10:16.844Z,12.59
2023-05-19T03:13:19.441Z,12.57
2023-05-19T03:16:22.432Z,12.58
2023-05-19T03:19:25.067Z,12.57
2023-05-19T03:22:27.934Z,12.57
2023-05-19T03:25:30.595Z,12.53
2023-05-19T03:28:33.490Z,12.60
2023-05-19T03:31:36.131Z,12.60
2023-05-19T03:34:39.378Z,12.60
2023-05-19T03:37:42.088Z,12.59
2023-05-19T03:40:45.255Z,12.56
2023-05-19T03:43:48.001Z,12.56
2023-05-19T03:46:51.063Z,12.58
2023-05-19T03:49:55.018Z,12.62
2023-05-19T03:53:01.753Z,12.65
2023-05-19T03:56:04.713Z,12.67
2023-05-19T03:59:08.199Z,12.76
2023-05-19T04:02:11.880Z,12.76
2023-05-19T04:05:14.939Z,12.84
2023-05-19T04:08:17.477Z,12.80
2023-05-19T04:11:21.483Z,12.87
2023-05-19T04:14:24.638Z,12.89
2023-05-19T04:17:27.909Z,12.91
2023-05-19T04:20:31.011Z,12.98
2023-05-19T04:23:34.122Z,13.03
2023-05-19T04:26:38.427Z,13.05
2023-05-19T04:29:41.349Z,13.16
2023-05-19T04:32:43.977Z,13.22
2023-05-19T04:35:47.114Z,13.22
2023-05-19T04:38:54.728Z,13.27
2023-05-19T04:41:58.217Z,13.32
2023-05-19T04:45:00.848Z,13.47
2023-05-19T04:48:04.382Z,13.51
2023-05-19T04:51:07.492Z,13.56
2023-05-19T04:54:10.468Z,13.60
2023-05-19T04:57:13.113Z,13.68
2023-05-19T05:00:16.913Z,13.73
2023-05-19T05:03:22.971Z,13.78
2023-05-19T05:06:28.594Z,13.82
2023-05-19T05:09:31.282Z,13.89
2023-05-19T05:12:35.110Z,13.94
2023-05-19T05:15:37.923Z,13.99
2023-05-19T05:18:43.464Z,13.92
2023-05-19T05:21:47.706Z,14.01
2023-05-19T05:24:51.302Z,14.12
2023-05-19T05:27:54.601Z,14.15
2023-05-19T05:30:57.929Z,14.29
2023-05-19T05:34:00.982Z,14.44
2023-05-19T05:37:04.438Z,14.50
2023-05-19T05:40:08.653Z,14.45
2023-05-19T05:43:11.695Z,14.42
2023-05-19T05:46:15.082Z,14.50
2023-05-19T05:49:18.294Z,14.53
2023-05-19T05:52:22.310Z,14.57
2023-05-19T05:55:25.527Z,14.74
2023-05-19T05:58:28.880Z,14.81
2023-05-19T06:01:33.582Z,14.89
2023-05-19T06:04:37.898Z,14.93
2023-05-19T06:07:41.879Z,15.01
2023-05-19T06:10:47.255Z,15.14
2023-05-19T06:13:50.536Z,15.29
2023-05-19T06:16:54.800Z,15.32
2023-05-19T06:19:57.415Z,15.39
2023-05-19T06:23:01.373Z,15.38
2023-05-19T06:26:04.125Z,15.62
2023-05-19T06:29:07.817Z,15.76
2023-05-19T06:32:10.591Z,15.83
2023-05-19T06:35:14.055Z,15.98
2023-05-19T06:38:16.644Z,15.98
2023-05-19T06:41:19.566Z,16.12
2023-05-19T06:44:22.969Z,16.16
2023-05-19T06:47:26.051Z,16.26
2023-05-19T06:50:28.604Z,16.42
2023-05-19T06:53:33.666Z,16.50
2023-05-19T06:56:37.891Z,16.52
2023-05-19T06:59:43.885Z,16.53
2023-05-19T07:02:47.304Z,16.65
2023-05-19T07:05:50.721Z,16.81
2023-05-19T07:08:56.696Z,16.90
2023-05-19T07:12:01.380Z,17.01
2023-05-19T07:15:06.063Z,17.10
2023-05-19T07:18:09.198Z,17.23
2023-05-19T07:21:11.874Z,17.25
2023-05-19T07:24:14.738Z,17.40
2023-05-19T07:27:17.236Z,17.50
2023-05-19T07:30:20.107Z,17.58
2023-05-19T07:33:22.722Z,17.62
2023-05-19T07:36:25.690Z,17.61
2023-05-19T07:39:29.793Z,17.62
2023-05-19T07:42:32.787Z,17.77
2023-05-19T07:45:35.387Z,17.90
2023-05-19T07:48:38.346Z,17.86
2023-05-19T07:51:41.903Z,17.83
2023-05-19T07:54:45.846Z,18.02
2023-05-19T07:57:49.257Z,18.20
2023-05-19T08:00:53.293Z,18.31
2023-05-19T08:03:56.668Z,18.34
2023-05-19T08:06:59.788Z,18.52
2023-05-19T08:10:03.099Z,18.74
2023-05-19T08:13:05.882Z,18.71
2023-05-19T08:16:08.766Z,18.66
2023-05-19T08:19:11.310Z,18.67
2023-05-19T08:22:14.155Z,18.81
2023-05-19T08:25:16.806Z,18.98
2023-05-19T08:28:19.625Z,19.26
2023-05-19T08:31:22.655Z,19.19
2023-05-19T08:34:25.696Z,19.35
2023-05-19T08:37:28.397Z,19.33
2023-05-19T08:40:32.018Z,19.31
2023-05-19T08:43:34.887Z,19.16
2023-05-19T08:46:37.763Z,19.31
2023-05-19T08:49:47.540Z,19.36
2023-05-19T08:53:01.636Z,19.55
2023-05-19T08:56:18.685Z,19.68
2023-05-19T08:59:22.071Z,19.97
2023-05-19T09:02:24.957Z,20.08
2023-05-19T09:05:28.065Z,20.09
2023-05-19T09:08:30.744Z,20.12
2023-05-19T09:11:34.136Z,20.31
2023-05-19T09:14:37.168Z,20.50
2023-05-19T09:17:40.180Z,20.61
2023-05-19T09:20:45.121Z,20.78
2023-05-19T09:23:48.860Z,20.95
2023-05-19T09:26:51.406Z,21.00
2023-05-19T09:29:54.299Z,21.15
2023-05-19T09:32:56.978Z,20.90
2023-05-19T09:36:00.070Z,20.79
2023-05-19T09:39:13.149Z,20.75
2023-05-19T09:42:16.770Z,20.67
2023-05-19T09:45:20.545Z,20.81
2023-05-19T09:48:26.518Z,21.08
2023-05-19T09:51:29.598Z,21.22
2023-05-19T09:54:34.473Z,21.48
2023-05-19T09:57:37.533Z,21.29
2023-05-19T10:00:40.610Z,21.33
2023-05-19T10:03:44.977Z,21.32
2023-05-19T10:06:53.494Z,21.40
2023-05-19T10:09:58.594Z,21.54
2023-05-19T10:13:01.432Z,21.84
2023-05-19T10:16:05.248Z,22.01
2023-05-19T10:19:08.068Z,22.13
2023-05-19T10:22:11.066Z,22.12
2023-05-19T10:25:20.024Z,22.01
2023-05-19T10:28:26.667Z,21.87
2023-05-19T10:31:30.679Z,21.77
2023-05-19T10:34:40.616Z,21.75
2023-05-19T10:37:46.816Z,21.73
2023-05-19T10:41:11.772Z,21.86
2023-05-19T10:44:34.742Z,21.95
2023-05-19T10:47:37.795Z,22.21
2023-05-19T10:50:40.479Z,22.40
2023-05-19T10:53:46.753Z,22.44
2023-05-19T10:56:49.354Z,22.45
2023-05-19T10:59:52.209Z,22.36
2023-05-19T11:02:57.925Z,22.32
2023-05-19T11:06:32.476Z,22.35
2023-05-19T11:09:40.926Z,22.59
2023-05-19T11:12:45.858Z,22.63
2023-05-19T11:15:49.898Z,22.73
2023-05-19T11:18:57.007Z,22.34
2023-05-19T11:22:10.879Z,22.33
2023-05-19T11:25:18.347Z,22.41
2023-05-19T11:28:26.242Z,22.70
2023-05-19T11:31:30.839Z,22.60
2023-05-19T11:34:33.549Z,22.67
2023-05-19T11:37:37.021Z,22.63
2023-05-19T11:40:40.632Z,22.75
2023-05-19T11:43:43.603Z,22.82
2023-05-19T11:46:46.378Z,22.93
2023-05-19T12:10:00.010Z,24.00
2023-05-19T12:13:03.512Z,24.00
2023-05-19T12:16:06.657Z,23.46
2023-05-19T12:19:10.345Z,23.62
2023-05-19T12:22:13.452Z,23.85
2023-05-19T12:25:16.950Z,23.83
2023-05-19T12:28:19.806Z,23.75
2023-05-19T12:31:25.661Z,23.64
2023-05-19T12:34:28.410Z,23.46
2023-05-19T12:37:34.957Z,23.52
2023-05-19T12:40:42.178Z,23.55
2023-05-19T12:43:45.068Z,23.39
2023-05-19T12:46:52.162Z,23.51
2023-05-19T12:50:02.701Z,23.72
2023-05-19T12:53:08.848Z,23.89
2023-05-19T12:56:14.075Z,24.06
2023-05-19T12:59:37.314Z,24.09
2023-05-19T13:03:02.956Z,24.05
2023-05-19T13:06:05.689Z,23.76
2023-05-19T13:09:08.604Z,23.78
